Terminal Aerodrome Forecast
Issued by NWS Melbourne, FL

Home | Current Version | Previous Version | Text Only | Print | Product List | Glossary On
Versions: 1 2 3 4 5 6 7 8 9 10 11 12 13
000
FTUS42 KMLB 300531
TAFDAB
TAF
KDAB 300531Z 3006/3106 06005KT P6SM SCT030
     FM301200 07003KT P6SM VCSH SCT035
      TEMPO 3012/3015 -SHRA BKN035
     FM301500 08006KT P6SM VCSH SCT035
     FM301800 08010KT P6SM SCT035
     FM310100 09005KT P6SM SCT035 SCT060 BKN250=

USA.gov is the U.S. government's official web portal to all federal, state and local government web resources and services.